Time;durP1;ratioP1;P1;durP2;ratioP2;P2;SDS_P1;SDS_P2;PMS_P1;PMS_P2;Temp;Humidity;BMP_temperature;BMP_pressure;BME280_temperature;BME280_humidity;BME280_pressure;Samples;Min_cycle;Max_cycle;Signal;HPM_P1;HPM_P2
2021/09/21 00:02:22;;;;;;;10.03;8.30;;;;;;;13.26;93.82;98842.28;5085181;28;20244;-67
2021/09/21 00:04:48;;;;;;;9.57;8.57;;;;;;;13.19;95.07;98844.50;5095718;28;20216;-66
2021/09/21 00:07:15;;;;;;;11.27;8.77;;;;;;;13.16;95.38;98843.88;5096107;28;20390;-67
2021/09/21 00:09:41;;;;;;;11.00;8.87;;;;;;;13.19;95.00;98848.94;5094421;28;20217;-66
2021/09/21 00:12:08;;;;;;;10.33;8.83;;;;;;;13.16;95.22;98858.00;5095654;28;20220;-67
2021/09/21 00:14:38;;;;;;;10.80;8.70;;;;;;;13.23;95.11;98856.63;5095827;28;20244;-67
2021/09/21 00:17:04;;;;;;;9.53;8.47;;;;;;;13.29;94.79;98863.31;5095481;28;20710;-67
2021/09/21 00:19:32;;;;;;;9.93;8.93;;;;;;;13.28;94.33;98858.97;5095749;28;20220;-67
2021/09/21 00:21:59;;;;;;;10.20;8.57;;;;;;;13.24;94.52;98854.81;5095362;28;20273;-66
2021/09/21 00:24:26;;;;;;;11.33;8.90;;;;;;;13.16;95.52;98857.13;5094820;28;20208;-67
2021/09/21 00:26:52;;;;;;;10.27;8.83;;;;;;;13.24;94.90;98860.09;5095439;28;20697;-66
2021/09/21 00:29:19;;;;;;;9.47;8.00;;;;;;;13.20;95.26;98863.94;5095519;28;20213;-66
2021/09/21 00:31:49;;;;;;;8.90;8.00;;;;;;;13.23;94.97;98859.28;5095358;28;20219;-66
2021/09/21 00:34:16;;;;;;;10.53;8.50;;;;;;;13.26;94.05;98863.53;5093382;28;21127;-66
2021/09/21 00:36:43;;;;;;;9.33;8.33;;;;;;;13.28;93.83;98872.22;5095370;28;20269;-66
2021/09/21 00:39:12;;;;;;;11.07;8.50;;;;;;;13.26;94.59;98863.53;5095002;28;20309;-66
2021/09/21 00:41:40;;;;;;;11.10;8.67;;;;;;;13.24;94.40;98871.59;5095204;28;20237;-66
2021/09/21 00:44:07;;;;;;;11.77;9.33;;;;;;;13.26;94.02;98869.66;5091208;28;20567;-66
2021/09/21 00:46:34;;;;;;;10.00;8.73;;;;;;;13.28;93.75;98872.22;5095260;28;20215;-66
2021/09/21 00:49:02;;;;;;;11.90;8.67;;;;;;;13.29;93.24;98868.63;5095252;28;20211;-66
2021/09/21 00:51:29;;;;;;;9.30;8.30;;;;;;;13.23;94.31;98869.03;5095164;28;20210;-66
2021/09/21 00:53:56;;;;;;;12.07;8.70;;;;;;;13.24;93.87;98868.06;5095100;28;20299;-66
2021/09/21 00:56:23;;;;;;;10.43;8.70;;;;;;;13.22;93.84;98870.00;5105387;28;20780;-67
2021/09/21 00:58:50;;;;;;;11.73;8.47;;;;;;;13.17;95.23;98874.75;5094375;28;20695;-67
2021/09/21 01:01:16;;;;;;;10.23;9.00;;;;;;;13.19;94.59;98872.84;5095976;28;20316;-67
2021/09/21 01:03:43;;;;;;;9.80;8.50;;;;;;;13.14;95.75;98877.63;5109262;28;20233;-67
2021/09/21 01:06:10;;;;;;;9.73;8.23;;;;;;;13.13;96.23;98868.81;5108556;28;20216;-67
2021/09/21 01:08:40;;;;;;;10.63;8.13;;;;;;;13.06;95.87;98867.53;5105413;28;20214;-69
2021/09/21 01:11:09;;;;;;;9.30;8.00;;;;;;;13.08;96.21;98864.78;5108461;28;20228;-69
2021/09/21 01:13:36;;;;;;;9.37;8.47;;;;;;;13.11;95.05;98869.88;5101487;28;20674;-67
2021/09/21 01:16:03;;;;;;;10.73;8.60;;;;;;;13.14;95.59;98859.88;5094974;28;20262;-67
2021/09/21 01:18:29;;;;;;;8.90;8.00;;;;;;;13.14;95.55;98867.84;5094397;28;20223;-67
2021/09/21 01:21:02;;;;;;;10.00;8.63;;;;;;;13.25;93.84;98867.13;5094639;28;20318;-70
2021/09/21 01:23:30;;;;;;;10.20;8.53;;;;;;;13.21;93.93;98871.78;5094516;28;20225;-68
2021/09/21 01:25:57;;;;;;;10.07;8.93;;;;;;;13.23;93.82;98874.34;5093622;28;20222;-67
2021/09/21 01:28:23;;;;;;;10.37;9.13;;;;;;;13.18;93.97;98864.03;5093181;28;20682;-66
2021/09/21 01:30:50;;;;;;;9.50;7.93;;;;;;;13.19;94.08;98875.50;5093908;28;20222;-67
2021/09/21 01:33:19;;;;;;;11.43;8.60;;;;;;;13.15;94.92;98876.69;5094224;28;20226;-67
2021/09/21 01:35:46;;;;;;;10.53;8.73;;;;;;;13.11;94.85;98869.88;5093879;28;20215;-66
2021/09/21 01:38:12;;;;;;;8.73;7.83;;;;;;;13.07;95.30;98873.69;5093822;28;20215;-66
2021/09/21 01:40:40;;;;;;;10.77;8.53;;;;;;;13.10;94.87;98878.78;5093720;28;20694;-67
2021/09/21 01:43:06;;;;;;;9.23;8.20;;;;;;;13.02;95.56;98873.16;5093897;28;20256;-67
2021/09/21 01:45:33;;;;;;;9.73;8.63;;;;;;;13.08;94.27;98864.78;5093946;28;20212;-67
2021/09/21 01:47:59;;;;;;;9.30;8.30;;;;;;;13.08;93.64;98872.75;5094043;28;20215;-67
2021/09/21 01:50:33;;;;;;;10.53;9.43;;;;;;;13.02;94.50;98875.81;5093885;28;20217;-67
2021/09/21 01:53:06;;;;;;;11.00;8.87;;;;;;;13.01;94.20;98882.06;5092300;28;20594;-68
2021/09/21 02:00:57;;;;;;;10.43;8.60;;;;;;;12.88;95.69;98875.81;5080638;28;20218;-68
2021/09/21 02:03:23;;;;;;;10.20;8.60;;;;;;;12.84;95.63;98882.31;5093380;28;20211;-66
2021/09/21 02:05:50;;;;;;;9.20;8.00;;;;;;;12.76;96.72;98876.63;5093565;28;20218;-66
2021/09/21 02:08:17;;;;;;;10.50;8.57;;;;;;;12.70;97.27;98880.56;5093400;28;20223;-67
2021/09/21 02:10:44;;;;;;;9.63;8.27;;;;;;;12.68;96.98;98878.97;5093593;28;20223;-68
2021/09/21 02:13:10;;;;;;;9.07;7.50;;;;;;;12.66;97.30;98883.53;5093522;28;20215;-66
2021/09/21 02:15:38;;;;;;;10.07;8.50;;;;;;;12.72;96.08;98883.13;5093488;28;20216;-66
2021/09/21 02:18:05;;;;;;;9.00;8.10;;;;;;;12.72;96.11;98883.13;5081452;28;20236;-67
2021/09/21 02:20:32;;;;;;;8.80;7.90;;;;;;;12.64;97.09;98880.09;5093178;28;20300;-65
2021/09/21 02:22:58;;;;;;;9.33;8.10;;;;;;;12.67;97.02;98880.78;5093330;28;20689;-67
2021/09/21 02:25:25;;;;;;;8.77;7.87;;;;;;;12.70;97.44;98879.69;5093408;28;20220;-69
2021/09/21 02:27:51;;;;;;;9.97;8.37;;;;;;;12.74;97.48;98874.13;5093304;28;20225;-67
2021/09/21 02:30:18;;;;;;;9.10;8.20;;;;;;;12.77;97.06;98873.06;5093347;28;20220;-67
2021/09/21 02:32:49;;;;;;;9.27;8.13;;;;;;;12.71;96.83;98878.78;5093383;28;20211;-67
2021/09/21 02:35:15;;;;;;;8.90;7.80;;;;;;;12.62;97.05;98897.91;5093178;28;20221;-68
2021/09/21 02:37:42;;;;;;;7.77;7.03;;;;;;;12.59;97.46;98890.19;5092926;28;20215;-67
2021/09/21 02:40:10;;;;;;;9.30;8.27;;;;;;;12.68;96.17;98895.72;5092832;28;20220;-68
2021/09/21 02:42:37;;;;;;;9.67;8.03;;;;;;;12.75;95.54;98888.22;5092931;28;20238;-67
2021/09/21 02:45:05;;;;;;;9.33;8.07;;;;;;;12.71;95.53;98894.69;5091503;28;20222;-66
2021/09/21 02:47:31;;;;;;;8.37;7.53;;;;;;;12.64;95.43;98890.72;5092538;28;20221;-67
2021/09/21 02:49:59;;;;;;;8.83;7.83;;;;;;;12.55;95.85;98886.00;5092896;28;20216;-67
2021/09/21 02:52:26;;;;;;;10.53;8.57;;;;;;;12.51;96.53;98900.41;5092776;28;20227;-67
2021/09/21 02:54:52;;;;;;;9.20;7.97;;;;;;;12.48;96.39;98905.94;5093022;28;20219;-67
2021/09/21 02:57:19;;;;;;;10.70;7.97;;;;;;;12.44;97.08;98899.13;5103711;28;20219;-67
2021/09/21 02:59:45;;;;;;;9.83;8.23;;;;;;;12.49;97.04;98900.53;5092919;28;20215;-67
2021/09/21 03:02:12;;;;;;;9.50;8.50;;;;;;;12.51;95.64;98895.13;5092515;28;20237;-67
2021/09/21 03:04:41;;;;;;;9.87;7.83;;;;;;;12.48;95.62;98895.31;5093025;28;20214;-67
2021/09/21 03:07:11;;;;;;;9.50;8.50;;;;;;;12.45;95.84;98901.69;5092675;28;20268;-67
2021/09/21 03:09:52;;;;;;;10.30;7.87;;;;;;;12.43;96.51;98890.34;5093033;28;20206;-67
2021/09/21 03:12:27;;;;;;;10.30;7.47;;;;;;;12.31;97.01;98890.25;5091548;28;20218;-67
2021/09/21 03:17:38;;;;;;;8.10;7.30;;;;;;;11.99;100.00;98896.75;5092747;28;20216;-67
2021/09/21 03:20:05;;;;;;;9.63;8.27;;;;;;;11.96;100.00;98897.78;5092891;28;20215;-67
2021/09/21 03:22:33;;;;;;;10.37;8.60;;;;;;;11.94;99.61;98904.13;5092041;28;20249;-67
2021/09/21 03:25:00;;;;;;;9.50;8.50;;;;;;;11.88;100.00;98912.47;5092702;28;20220;-67
2021/09/21 03:27:26;;;;;;;9.23;8.13;;;;;;;11.84;100.00;98914.44;5092329;28;20690;-67
2021/09/21 03:29:53;;;;;;;9.23;7.90;;;;;;;11.91;100.00;98920.19;5092601;28;20218;-67
2021/09/21 03:32:19;;;;;;;9.40;8.33;;;;;;;11.99;98.86;98923.25;5092495;28;20226;-67
2021/09/21 03:34:46;;;;;;;8.63;7.73;;;;;;;11.97;98.88;98920.69;5082106;28;20683;-67
2021/09/21 03:37:12;;;;;;;10.37;8.87;;;;;;;12.00;98.87;98920.50;5091196;28;20215;-67
2021/09/21 03:39:41;;;;;;;8.97;8.07;;;;;;;12.05;98.64;98920.22;5092547;28;20223;-67
2021/09/21 03:42:07;;;;;;;10.43;8.50;;;;;;;12.02;98.59;98923.03;5092513;28;20235;-67
2021/09/21 03:44:34;;;;;;;9.47;8.00;;;;;;;12.05;97.93;98922.88;5092192;28;20230;-66
2021/09/21 03:47:00;;;;;;;9.93;8.40;;;;;;;12.08;98.13;98927.94;5092513;28;20221;-67
2021/09/21 03:49:27;;;;;;;9.00;8.10;;;;;;;12.09;98.64;98927.88;5092270;28;20228;-67
2021/09/21 03:51:53;;;;;;;9.53;7.87;;;;;;;12.05;98.41;98928.16;5092291;28;20241;-67
2021/09/21 03:54:20;;;;;;;9.27;8.27;;;;;;;12.03;98.91;98932.69;5089603;28;20211;-67
2021/09/21 03:56:48;;;;;;;9.20;8.30;;;;;;;12.14;97.68;98932.88;5092101;28;20681;-67
2021/09/21 03:59:15;;;;;;;9.10;7.97;;;;;;;12.09;97.83;98938.47;5093517;28;20591;-67
2021/09/21 04:01:41;;;;;;;11.07;8.80;;;;;;;12.03;98.52;98938.84;5095813;28;20219;-67
2021/09/21 04:04:08;;;;;;;9.03;7.83;;;;;;;11.99;99.42;98933.84;5094434;28;20221;-67
2021/09/21 04:06:35;;;;;;;10.43;8.17;;;;;;;11.99;99.75;98932.03;5096116;28;20218;-67
2021/09/21 04:09:02;;;;;;;9.23;8.27;;;;;;;11.97;100.00;98941.00;5096040;28;20588;-67
2021/09/21 04:11:28;;;;;;;8.63;7.50;;;;;;;11.94;100.00;98935.91;5095655;28;20782;-67
2021/09/21 04:13:56;;;;;;;9.10;8.10;;;;;;;11.92;100.00;98937.81;5095713;28;20593;-67
2021/09/21 04:16:22;;;;;;;9.07;8.17;;;;;;;11.84;100.00;98937.41;5095832;28;20229;-67
2021/09/21 04:18:49;;;;;;;8.77;7.90;;;;;;;11.71;100.00;98939.13;5095764;28;20215;-67
2021/09/21 04:21:15;;;;;;;10.10;8.97;;;;;;;11.72;100.00;98946.13;5103466;28;20235;-67
2021/09/21 04:23:42;;;;;;;9.80;8.60;;;;;;;11.64;100.00;98943.09;5095520;28;20251;-65
2021/09/21 04:26:09;;;;;;;10.33;8.87;;;;;;;11.65;100.00;98960.69;5095274;28;20222;-66
2021/09/21 04:28:39;;;;;;;10.87;8.13;;;;;;;11.74;100.00;98949.53;5103846;28;20230;-65
2021/09/21 04:31:09;;;;;;;9.07;8.03;;;;;;;11.75;100.00;98959.19;5095434;28;20587;-65
2021/09/21 04:33:37;;;;;;;9.50;8.40;;;;;;;11.74;100.00;98960.13;5095332;28;20578;-65
2021/09/21 04:36:04;;;;;;;10.87;8.77;;;;;;;11.72;100.00;98973.47;5094927;28;20210;-65
2021/09/21 04:38:30;;;;;;;9.67;8.30;;;;;;;11.73;99.86;98969.03;5095223;28;20210;-66
2021/09/21 04:40:57;;;;;;;10.03;8.20;;;;;;;11.78;99.66;98969.56;5102853;28;20672;-67
2021/09/21 04:43:24;;;;;;;9.13;8.10;;;;;;;11.78;99.34;98982.81;5095114;28;20243;-65
2021/09/21 04:45:50;;;;;;;9.60;8.23;;;;;;;11.83;98.60;98984.28;5095010;28;20215;-65
2021/09/21 04:48:18;;;;;;;9.20;7.67;;;;;;;11.83;98.54;98994.88;5095114;28;20226;-65
2021/09/21 04:50:45;;;;;;;10.33;8.63;;;;;;;11.77;99.04;99002.31;5095084;28;20211;-65
2021/09/21 04:53:11;;;;;;;8.97;8.07;;;;;;;11.83;99.83;99008.09;5095013;28;20215;-65
2021/09/21 04:55:38;;;;;;;10.63;8.77;;;;;;;11.83;100.00;99024.00;5099118;28;20214;-65
2021/09/21 04:58:04;;;;;;;9.77;8.67;;;;;;;11.90;100.00;99019.16;5099608;28;20217;-65
2021/09/21 05:00:31;;;;;;;10.43;8.20;;;;;;;11.92;99.82;99014.66;5094846;28;20210;-65
2021/09/21 05:02:58;;;;;;;9.97;8.13;;;;;;;12.02;98.69;99018.41;5094686;28;20241;-65
2021/09/21 05:05:26;;;;;;;11.20;8.43;;;;;;;12.01;98.56;99029.97;5094462;28;20669;-65
2021/09/21 05:07:53;;;;;;;9.93;8.50;;;;;;;12.05;97.86;99036.81;5094730;28;20222;-65
2021/09/21 05:10:19;;;;;;;10.60;8.93;;;;;;;12.09;97.64;99035.66;5094248;28;20221;-65
2021/09/21 05:12:46;;;;;;;8.83;7.93;;;;;;;12.05;97.96;99039.44;5102523;28;20217;-65
2021/09/21 05:15:13;;;;;;;10.90;7.97;;;;;;;12.07;98.25;99049.00;5094278;28;20229;-65
2021/09/21 05:17:39;;;;;;;9.60;7.70;;;;;;;12.08;97.71;99055.16;5094568;28;20207;-65
2021/09/21 05:20:07;;;;;;;9.43;8.17;;;;;;;12.08;98.14;99049.84;5093219;28;20207;-65
2021/09/21 05:22:35;;;;;;;9.43;8.40;;;;;;;12.16;97.43;99052.91;5093891;28;20311;-66
2021/09/21 05:25:02;;;;;;;9.30;8.17;;;;;;;12.17;97.19;99060.75;5094114;28;20222;-65
2021/09/21 05:27:28;;;;;;;10.50;8.87;;;;;;;12.16;97.08;99068.81;5094095;28;20217;-65
2021/09/21 05:29:55;;;;;;;9.30;8.33;;;;;;;12.14;96.37;99071.53;5094425;28;20211;-66
2021/09/21 05:32:21;;;;;;;8.57;7.47;;;;;;;12.16;96.14;99071.47;5094342;28;20222;-66
2021/09/21 05:34:48;;;;;;;9.03;7.97;;;;;;;12.12;96.72;99072.56;5093870;28;20208;-67
2021/09/21 05:37:14;;;;;;;9.00;7.83;;;;;;;12.05;97.17;99071.25;5094428;28;20214;-65
2021/09/21 05:39:42;;;;;;;9.87;8.07;;;;;;;12.08;97.23;99069.25;5094357;28;20224;-65
2021/09/21 05:42:09;;;;;;;12.57;8.00;;;;;;;12.15;96.68;99075.03;5094175;28;20582;-65
2021/09/21 05:44:35;;;;;;;8.57;7.67;;;;;;;12.16;95.61;99069.63;5104307;28;20671;-65
2021/09/21 05:47:02;;;;;;;9.97;8.83;;;;;;;12.21;95.28;99066.69;5092602;28;20214;-65
2021/09/21 05:49:28;;;;;;;8.30;7.50;;;;;;;12.21;95.05;99072.00;5093876;28;20572;-65
2021/09/21 05:51:55;;;;;;;8.77;7.87;;;;;;;12.21;95.14;99075.50;5093826;28;20215;-65
2021/09/21 05:54:21;;;;;;;8.93;8.03;;;;;;;12.21;95.21;99072.00;5090495;28;20208;-65
2021/09/21 05:56:49;;;;;;;9.50;7.53;;;;;;;12.25;94.35;99073.53;5093608;28;20222;-65
2021/09/21 05:59:15;;;;;;;11.00;8.20;;;;;;;12.18;94.30;99072.19;5093482;28;20626;-69
2021/09/21 06:01:43;;;;;;;8.73;7.50;;;;;;;12.10;95.52;99063.88;5093393;28;20694;-67
2021/09/21 06:04:11;;;;;;;8.57;7.70;;;;;;;12.03;95.54;99063.38;5093530;28;20244;-67
2021/09/21 06:06:37;;;;;;;8.73;7.83;;;;;;;12.01;96.27;99069.72;5093679;28;20219;-67
2021/09/21 06:09:04;;;;;;;8.97;8.07;;;;;;;11.97;95.86;99069.03;5093185;28;20218;-67
2021/09/21 06:11:33;;;;;;;9.30;7.83;;;;;;;11.88;96.75;99064.31;5093654;28;20551;-67
2021/09/21 06:14:02;;;;;;;8.13;7.30;;;;;;;11.89;96.16;99075.75;5091602;28;20246;-67
2021/09/21 06:16:29;;;;;;;8.67;7.77;;;;;;;11.98;95.77;99075.22;5093629;28;20588;-67
2021/09/21 06:18:56;;;;;;;9.83;7.77;;;;;;;12.12;95.13;99080.53;5093487;28;20230;-67
2021/09/21 06:21:23;;;;;;;10.30;7.87;;;;;;;12.28;93.90;99090.09;5092688;28;20249;-67
2021/09/21 06:23:50;;;;;;;9.07;8.10;;;;;;;12.44;93.73;99084.72;5092892;28;20235;-67
2021/09/21 06:26:17;;;;;;;9.67;8.17;;;;;;;12.52;92.76;99090.38;5093064;28;20680;-67
2021/09/21 06:28:43;;;;;;;8.37;7.57;;;;;;;12.61;92.16;99087.19;5093223;28;20206;-67
2021/09/21 06:31:11;;;;;;;8.83;7.93;;;;;;;12.69;90.59;99100.81;5093577;28;20211;-67
2021/09/21 06:33:38;;;;;;;9.57;7.57;;;;;;;12.79;90.61;99099.28;5093454;28;20221;-67
2021/09/21 06:36:05;;;;;;;10.43;7.30;;;;;;;12.86;89.81;99105.91;5093287;28;20216;-67
2021/09/21 06:38:34;;;;;;;8.40;7.50;;;;;;;12.89;89.27;99113.69;5091231;28;20293;-67
2021/09/21 06:41:01;;;;;;;9.40;7.50;;;;;;;12.93;88.47;99112.53;5093531;28;20219;-67
2021/09/21 06:43:27;;;;;;;8.47;7.57;;;;;;;12.93;88.74;99128.44;5093042;28;20746;-67
2021/09/21 06:45:55;;;;;;;8.60;7.67;;;;;;;13.00;87.41;99130.66;5092932;28;20215;-67
2021/09/21 06:48:23;;;;;;;8.60;7.70;;;;;;;13.05;86.06;99125.06;5093169;28;20254;-67
2021/09/21 06:50:50;;;;;;;8.83;7.83;;;;;;;13.09;86.34;99129.22;5093247;28;20219;-67
2021/09/21 06:53:16;;;;;;;8.03;7.23;;;;;;;12.99;86.68;99136.94;5093003;28;20212;-67
2021/09/21 06:55:43;;;;;;;8.63;7.73;;;;;;;13.02;86.96;99135.88;5099470;28;20217;-67
2021/09/21 06:58:09;;;;;;;8.87;7.93;;;;;;;13.08;87.54;99138.16;5107111;28;20212;-67
2021/09/21 07:00:38;;;;;;;10.07;7.37;;;;;;;13.05;86.43;99141.84;5092985;28;20215;-67
2021/09/21 07:03:06;;;;;;;9.20;7.70;;;;;;;13.10;85.48;99145.06;5092837;28;20236;-67
2021/09/21 07:05:35;;;;;;;9.13;8.07;;;;;;;13.09;85.04;99147.81;5091514;28;20238;-66
2021/09/21 07:08:01;;;;;;;9.10;8.13;;;;;;;13.15;84.74;99158.03;5092777;28;20212;-67
2021/09/21 07:10:28;;;;;;;9.53;7.67;;;;;;;13.15;84.98;99160.69;5092725;28;20227;-67
2021/09/21 07:12:54;;;;;;;8.57;7.63;;;;;;;13.27;83.67;99167.88;5092861;28;20303;-66
2021/09/21 07:15:23;;;;;;;9.70;7.93;;;;;;;13.35;83.52;99177.06;5092874;28;20215;-67
2021/09/21 07:17:49;;;;;;;9.07;7.17;;;;;;;13.34;83.57;99177.16;5092687;28;20580;-67
2021/09/21 07:20:16;;;;;;;9.30;7.70;;;;;;;13.50;82.43;99185.88;5092869;28;20219;-67
2021/09/21 07:22:44;;;;;;;8.37;7.07;;;;;;;13.46;80.71;99187.84;5092414;28;20241;-67
2021/09/21 07:25:11;;;;;;;7.60;6.60;;;;;;;13.52;77.84;99189.25;5092813;28;20226;-67
2021/09/21 07:27:37;;;;;;;9.40;7.80;;;;;;;13.53;79.79;99196.28;5092746;28;20212;-67
2021/09/21 07:30:05;;;;;;;8.60;7.37;;;;;;;13.48;81.63;99187.75;5099433;28;20220;-67
2021/09/21 07:32:33;;;;;;;10.03;7.73;;;;;;;13.52;81.24;99189.25;5092334;28;20230;-67
2021/09/21 07:35:00;;;;;;;8.27;7.33;;;;;;;13.54;79.58;99192.66;5096709;28;20245;-67
2021/09/21 07:37:26;;;;;;;7.53;6.73;;;;;;;13.64;77.43;99199.09;5096323;28;20225;-67
2021/09/21 07:39:55;;;;;;;9.87;7.30;;;;;;;13.58;79.08;99196.84;5096505;28;20238;-66
2021/09/21 07:42:22;;;;;;;8.40;7.50;;;;;;;13.72;78.58;99207.41;5096089;28;20669;-67
2021/09/21 07:44:48;;;;;;;7.33;6.63;;;;;;;13.76;76.94;99201.78;5096396;28;20239;-67
2021/09/21 07:47:15;;;;;;;7.93;6.87;;;;;;;13.81;77.59;99202.34;5096386;28;20209;-66
2021/09/21 07:49:42;;;;;;;8.97;7.30;;;;;;;13.94;77.76;99197.09;5096076;28;20220;-67
2021/09/21 07:52:08;;;;;;;9.50;7.70;;;;;;;14.07;76.87;99205.97;5096221;28;20212;-67
2021/09/21 07:54:35;;;;;;;7.93;7.13;;;;;;;14.10;74.20;99197.78;5091870;28;20207;-67
2021/09/21 07:57:03;;;;;;;8.10;7.30;;;;;;;14.10;72.13;99214.59;5091673;28;20221;-66
2021/09/21 07:59:30;;;;;;;7.93;6.67;;;;;;;13.92;74.81;99199.84;5095247;28;20213;-66
2021/09/21 08:01:56;;;;;;;8.03;7.23;;;;;;;13.99;76.49;99205.63;5091888;28;20209;-67
2021/09/21 08:04:23;;;;;;;7.37;6.60;;;;;;;14.17;75.96;99220.38;5092951;28;20241;-67
2021/09/21 08:06:49;;;;;;;7.67;6.57;;;;;;;14.26;74.40;99225.09;5093144;28;20510;-66
2021/09/21 08:09:16;;;;;;;6.93;6.27;;;;;;;14.53;72.70;99218.75;5094649;28;20213;-65
2021/09/21 08:11:43;;;;;;;7.23;6.53;;;;;;;14.55;71.92;99223.97;5093789;28;20221;-65
2021/09/21 08:14:10;;;;;;;8.00;7.07;;;;;;;14.52;71.45;99213.53;5094130;28;20209;-65
2021/09/21 08:16:38;;;;;;;6.47;5.87;;;;;;;14.58;69.89;99215.78;5094425;28;20218;-65
2021/09/21 08:19:05;;;;;;;7.83;7.03;;;;;;;14.52;70.99;99222.38;5093686;28;20232;-64
2021/09/21 08:21:31;;;;;;;6.53;5.93;;;;;;;14.73;67.87;99230.72;5094645;28;20248;-65
2021/09/21 08:23:58;;;;;;;7.90;6.57;;;;;;;14.79;66.92;99235.63;5092654;28;20243;-65
2021/09/21 08:26:25;;;;;;;7.50;6.43;;;;;;;14.72;69.04;99232.50;5093797;28;20224;-66
2021/09/21 08:28:51;;;;;;;6.80;6.10;;;;;;;14.72;65.91;99240.50;5095345;28;20264;-66
2021/09/21 08:31:19;;;;;;;6.20;5.60;;;;;;;14.75;65.22;99239.44;5095733;28;20215;-66
2021/09/21 08:33:46;;;;;;;6.20;5.20;;;;;;;14.89;62.46;99239.31;5095508;28;20218;-67
2021/09/21 08:36:12;;;;;;;6.57;5.90;;;;;;;15.02;64.55;99237.53;5095496;28;20214;-67
2021/09/21 08:38:39;;;;;;;6.60;6.00;;;;;;;15.09;65.36;99222.84;5095475;28;20218;-67
2021/09/21 08:41:06;;;;;;;6.40;5.73;;;;;;;15.14;65.62;99223.34;5095365;28;20213;-67
2021/09/21 08:43:32;;;;;;;6.80;5.80;;;;;;;15.17;64.68;99233.78;5094830;28;20256;-67
2021/09/21 08:45:59;;;;;;;6.57;5.97;;;;;;;15.28;62.81;99241.88;5094143;28;20214;-64
2021/09/21 08:48:27;;;;;;;6.70;5.70;;;;;;;15.28;64.13;99241.88;5095083;28;20215;-65
2021/09/21 08:50:54;;;;;;;7.20;5.57;;;;;;;15.42;64.47;99247.13;5093955;28;20683;-64
2021/09/21 08:53:20;;;;;;;6.40;5.80;;;;;;;15.50;63.76;99252.75;5095260;28;20218;-65
2021/09/21 08:55:47;;;;;;;6.87;5.50;;;;;;;15.60;63.70;99253.78;5101337;28;20209;-64
2021/09/21 08:58:14;;;;;;;7.07;6.27;;;;;;;15.74;64.08;99261.66;5097715;28;20220;-65
2021/09/21 09:00:40;;;;;;;7.50;6.00;;;;;;;15.81;62.57;99260.22;5094984;28;20211;-65
2021/09/21 09:03:08;;;;;;;6.37;5.77;;;;;;;15.84;62.03;99265.34;5094664;28;20207;-65
2021/09/21 09:05:44;;;;;;;6.67;5.97;;;;;;;15.90;59.91;99265.78;5094826;28;20215;-65
2021/09/21 09:08:11;;;;;;;6.03;5.43;;;;;;;15.99;59.65;99275.75;5094804;28;20214;-65
2021/09/21 09:10:38;;;;;;;6.50;5.90;;;;;;;16.13;57.88;99277.44;5094866;28;20563;-65
2021/09/21 09:13:05;;;;;;;7.63;5.87;;;;;;;15.93;57.27;99268.22;5094333;28;20698;-65
2021/09/21 09:15:32;;;;;;;6.50;5.80;;;;;;;15.96;57.43;99264.47;5092991;28;20218;-65
2021/09/21 09:18:01;;;;;;;5.70;5.20;;;;;;;15.80;59.59;99266.53;5094230;28;20217;-65
2021/09/21 09:20:36;;;;;;;6.13;5.53;;;;;;;15.81;61.91;99271.75;5086994;28;20214;-65
2021/09/21 09:23:07;;;;;;;6.70;6.00;;;;;;;15.88;59.91;99274.84;5085232;28;20236;-65
2021/09/21 09:25:34;;;;;;;5.73;4.90;;;;;;;15.85;58.06;99277.72;5094415;28;20291;-65
2021/09/21 09:28:00;;;;;;;6.23;5.60;;;;;;;15.94;59.51;99277.06;5094449;28;20214;-65
2021/09/21 09:30:27;;;;;;;5.70;5.10;;;;;;;15.97;58.04;99276.81;5094223;28;20284;-65
2021/09/21 09:32:56;;;;;;;5.60;5.10;;;;;;;16.01;60.58;99279.16;5084962;28;20218;-65
2021/09/21 09:35:25;;;;;;;5.83;5.33;;;;;;;16.08;59.59;99269.72;5093999;28;20246;-65
2021/09/21 09:37:52;;;;;;;6.33;5.50;;;;;;;16.21;57.48;99270.56;5093893;28;20235;-65
2021/09/21 09:40:20;;;;;;;5.40;4.90;;;;;;;16.13;57.10;99273.78;5094207;28;20241;-65
2021/09/21 09:42:49;;;;;;;5.43;4.93;;;;;;;15.97;57.37;99274.16;5092541;28;20210;-65
2021/09/21 09:45:26;;;;;;;5.67;4.97;;;;;;;15.80;55.00;99269.19;5093979;28;20239;-65
2021/09/21 09:47:53;;;;;;;5.13;4.63;;;;;;;15.90;55.81;99270.25;5099612;28;20300;-65
2021/09/21 09:50:29;;;;;;;5.70;5.20;;;;;;;15.86;54.54;99282.09;5094027;28;20268;-65
2021/09/21 09:53:05;;;;;;;5.47;4.83;;;;;;;15.82;55.44;99281.47;5093961;28;20220;-65
2021/09/21 09:55:33;;;;;;;5.10;4.70;;;;;;;15.79;55.53;99275.50;5090614;28;20214;-65
2021/09/21 09:58:01;;;;;;;6.33;5.73;;;;;;;15.85;55.39;99273.25;5093823;28;20230;-65
2021/09/21 10:00:28;;;;;;;6.40;5.67;;;;;;;15.77;57.35;99275.59;5084760;28;20211;-65
2021/09/21 10:02:56;;;;;;;5.73;5.03;;;;;;;15.82;57.93;99275.28;5093656;28;20214;-65
2021/09/21 10:05:22;;;;;;;5.20;4.70;;;;;;;15.93;56.90;99286.00;5093354;28;20234;-65
2021/09/21 10:07:49;;;;;;;5.30;4.80;;;;;;;16.04;56.49;99282.44;5092140;28;20211;-65
2021/09/21 10:10:16;;;;;;;5.80;4.90;;;;;;;16.13;57.44;99283.59;5084478;28;20221;-65
2021/09/21 10:12:44;;;;;;;5.73;5.20;;;;;;;16.30;54.71;99288.53;5093440;28;20703;-65
2021/09/21 10:15:12;;;;;;;5.77;5.27;;;;;;;16.34;55.90;99292.69;5093386;28;20222;-65
2021/09/21 10:17:50;;;;;;;5.63;5.13;;;;;;;16.34;55.82;99282.84;5093503;28;20218;-65
2021/09/21 10:20:16;;;;;;;5.70;5.20;;;;;;;16.26;55.60;99298.59;5085978;28;20252;-65
2021/09/21 10:22:51;;;;;;;5.40;4.90;;;;;;;16.23;55.52;99289.97;5093656;28;20242;-65
2021/09/21 10:25:27;;;;;;;7.23;6.00;;;;;;;16.36;56.33;99285.41;5093511;28;20249;-65
2021/09/21 10:27:55;;;;;;;5.57;4.97;;;;;;;16.42;54.16;99288.53;5093048;28;20209;-65
2021/09/21 10:30:23;;;;;;;6.50;4.90;;;;;;;16.44;53.31;99291.91;5093033;28;20268;-65
2021/09/21 10:32:50;;;;;;;6.73;5.50;;;;;;;16.58;55.83;99286.41;5091606;28;20263;-65
2021/09/21 10:35:19;;;;;;;6.17;5.47;;;;;;;16.49;53.17;99295.09;5087734;28;20242;-65
2021/09/21 10:37:57;;;;;;;6.37;5.50;;;;;;;16.25;55.04;99299.56;5093065;28;20222;-65
2021/09/21 10:40:35;;;;;;;5.37;4.87;;;;;;;16.12;56.20;99305.06;5092816;28;20214;-65
2021/09/21 10:43:03;;;;;;;7.53;6.20;;;;;;;16.14;54.65;99307.50;5093249;28;20217;-65
2021/09/21 10:45:30;;;;;;;6.67;5.53;;;;;;;16.19;55.19;99302.69;5092637;28;20242;-65
2021/09/21 10:48:01;;;;;;;6.03;5.37;;;;;;;16.26;54.59;99298.59;5093209;28;20215;-65
2021/09/21 10:50:28;;;;;;;6.00;5.50;;;;;;;16.28;55.44;99295.81;5092823;28;20238;-65
2021/09/21 10:53:04;;;;;;;6.20;5.60;;;;;;;16.21;55.96;99287.41;5092892;28;20211;-65
2021/09/21 10:55:35;;;;;;;6.60;6.00;;;;;;;16.34;56.10;99293.53;5092780;28;20210;-66
2021/09/21 10:58:04;;;;;;;5.77;5.27;;;;;;;16.57;55.68;99295.38;5097097;28;20232;-65
2021/09/21 11:00:34;;;;;;;6.20;5.60;;;;;;;16.52;53.78;99294.88;5096155;28;20281;-65
2021/09/21 11:03:01;;;;;;;5.73;5.23;;;;;;;16.43;55.49;99282.22;5099335;28;20617;-65
2021/09/21 11:05:28;;;;;;;6.30;5.73;;;;;;;16.76;54.43;99297.53;5092874;28;20325;-64
2021/09/21 11:07:56;;;;;;;6.00;5.40;;;;;;;17.04;55.19;99299.78;5093320;28;20218;-64
2021/09/21 11:10:28;;;;;;;6.10;5.47;;;;;;;17.20;54.35;99293.13;5101566;28;20210;-65
2021/09/21 11:12:55;;;;;;;6.13;5.47;;;;;;;17.20;53.84;99282.44;5109990;28;20214;-65
2021/09/21 11:15:26;;;;;;;6.03;5.40;;;;;;;17.41;53.34;99290.63;5103993;28;20589;-65
2021/09/21 11:18:02;;;;;;;7.03;5.73;;;;;;;17.61;52.12;99282.75;5097004;28;20336;-65
2021/09/21 11:20:29;;;;;;;6.33;5.50;;;;;;;17.81;51.24;99281.97;5096958;28;20214;-65
2021/09/21 11:23:01;;;;;;;7.57;5.60;;;;;;;17.99;52.14;99287.69;5096820;28;20598;-65
2021/09/21 11:25:29;;;;;;;5.50;5.00;;;;;;;18.06;51.65;99283.53;5094678;28;20287;-65
2021/09/21 11:27:56;;;;;;;6.30;5.70;;;;;;;17.80;52.39;99293.66;5096463;28;20222;-65
2021/09/21 11:30:24;;;;;;;8.53;6.30;;;;;;;17.42;52.69;99285.16;5096919;28;20222;-65
2021/09/21 11:32:51;;;;;;;6.57;5.50;;;;;;;16.99;54.96;99281.44;5087527;28;20237;-65
2021/09/21 11:35:19;;;;;;;7.03;6.27;;;;;;;16.88;55.34;99284.06;5096428;28;20226;-64
2021/09/21 11:37:48;;;;;;;6.33;5.73;;;;;;;16.73;55.94;99290.59;5096269;28;20675;-65
2021/09/21 11:40:23;;;;;;;7.00;6.30;;;;;;;16.85;54.56;99295.00;5096370;28;20226;-65
2021/09/21 11:42:50;;;;;;;6.97;6.27;;;;;;;16.80;54.37;99297.16;5088784;28;20213;-64